createdAt,value
2022-08-29T00:00:50.905Z,20.98
2022-08-29T00:03:19.330Z,20.92
2022-08-29T00:05:50.113Z,20.79
2022-08-29T00:08:19.402Z,20.70
2022-08-29T00:10:48.804Z,20.74
2022-08-29T00:13:17.475Z,20.89
2022-08-29T00:15:46.403Z,21.24
2022-08-29T00:18:19.250Z,21.39
2022-08-29T00:20:48.736Z,21.13
2022-08-29T00:23:18.377Z,21.18
2022-08-29T00:25:47.208Z,21.33
2022-08-29T00:28:15.882Z,21.38
2022-08-29T00:30:45.103Z,21.44
2022-08-29T00:33:13.623Z,21.30
2022-08-29T00:35:44.858Z,21.22
2022-08-29T00:38:18.259Z,21.02
2022-08-29T00:40:55.248Z,21.11
2022-08-29T00:43:31.190Z,21.06
2022-08-29T00:46:36.842Z,21.08
2022-08-29T00:49:33.198Z,21.32
2022-08-29T00:52:20.113Z,21.38
2022-08-29T00:54:53.026Z,21.44
2022-08-29T00:57:23.248Z,21.30
2022-08-29T00:59:52.719Z,21.41
2022-08-29T01:02:21.882Z,21.27
2022-08-29T01:04:51.101Z,21.37
2022-08-29T01:07:20.477Z,21.37
2022-08-29T01:09:49.088Z,21.08
2022-08-29T01:12:17.843Z,20.81
2022-08-29T01:15:02.326Z,20.79
2022-08-29T01:17:42.597Z,20.97
2022-08-29T01:21:02.006Z,20.66
2022-08-29T01:24:01.358Z,20.81
2022-08-29T01:26:31.440Z,20.91
2022-08-29T01:29:00.550Z,21.02
2022-08-29T01:31:56.625Z,20.98
2022-08-29T01:34:30.459Z,20.97
2022-08-29T01:37:06.554Z,20.92
2022-08-29T01:39:39.765Z,20.83
2022-08-29T01:42:22.792Z,20.79
2022-08-29T01:44:59.491Z,21.03
2022-08-29T01:47:38.022Z,20.94
2022-08-29T01:50:15.315Z,20.88
2022-08-29T01:52:44.516Z,20.93
2022-08-29T01:55:13.185Z,20.71
2022-08-29T01:57:42.726Z,20.69
2022-08-29T02:00:13.115Z,20.59
2022-08-29T02:02:43.514Z,20.70
2022-08-29T02:05:12.426Z,20.38
2022-08-29T02:07:41.229Z,20.54
2022-08-29T02:10:10.705Z,20.46
2022-08-29T02:12:39.383Z,20.33
2022-08-29T02:15:08.787Z,20.51
2022-08-29T02:17:39.275Z,20.67
2022-08-29T02:20:09.286Z,20.59
2022-08-29T02:22:40.763Z,20.52
2022-08-29T02:25:28.653Z,20.54
2022-08-29T02:27:58.453Z,20.56
2022-08-29T02:30:27.223Z,20.44
2022-08-29T02:32:55.962Z,20.60
2022-08-29T02:35:24.691Z,20.39
2022-08-29T02:37:53.592Z,20.44
2022-08-29T02:40:24.627Z,20.44
2022-08-29T02:43:01.289Z,20.50
2022-08-29T02:45:30.968Z,20.50
2022-08-29T02:48:00.339Z,20.48
2022-08-29T02:50:29.020Z,20.44
2022-08-29T02:52:58.090Z,20.44
2022-08-29T02:55:27.432Z,20.22
2022-08-29T02:57:56.153Z,20.26
2022-08-29T03:00:27.925Z,20.17
2022-08-29T03:02:57.629Z,20.32
2022-08-29T03:05:33.393Z,20.44
2022-08-29T03:08:08.257Z,20.19
2022-08-29T03:10:38.142Z,19.79
2022-08-29T03:13:06.901Z,19.47
2022-08-29T03:15:36.489Z,19.58
2022-08-29T03:18:05.930Z,19.52
2022-08-29T03:20:38.738Z,19.40
2022-08-29T03:23:07.986Z,19.44
2022-08-29T03:25:37.628Z,19.00
2022-08-29T03:28:06.286Z,18.95
2022-08-29T03:30:35.413Z,19.02
2022-08-29T03:33:09.865Z,19.58
2022-08-29T03:35:40.938Z,19.65
2022-08-29T03:38:09.831Z,19.62
2022-08-29T03:40:42.660Z,19.58
2022-08-29T03:43:11.877Z,19.21
2022-08-29T03:45:40.499Z,19.18
2022-08-29T03:48:09.141Z,19.18
2022-08-29T03:50:38.573Z,19.29
2022-08-29T03:53:07.405Z,19.32
2022-08-29T03:55:36.116Z,19.32
2022-08-29T03:58:04.931Z,19.37
2022-08-29T04:00:34.303Z,19.23
2022-08-29T04:03:04.068Z,19.23
2022-08-29T04:05:32.799Z,19.23
2022-08-29T04:08:03.459Z,19.38
2022-08-29T04:10:38.556Z,19.38
2022-08-29T04:13:09.147Z,19.61
2022-08-29T04:15:41.789Z,19.69
2022-08-29T04:18:12.180Z,19.77
2022-08-29T04:20:45.099Z,19.71
2022-08-29T04:23:14.854Z,19.15
2022-08-29T04:25:45.379Z,19.05
2022-08-29T04:28:15.202Z,19.14
2022-08-29T04:30:52.803Z,19.10
2022-08-29T04:33:27.316Z,18.83
2022-08-29T04:35:55.936Z,18.95
2022-08-29T04:38:24.512Z,19.01
2022-08-29T04:40:53.179Z,19.25
2022-08-29T04:43:21.832Z,19.29
2022-08-29T04:46:03.259Z,19.66
2022-08-29T04:48:31.947Z,20.02
2022-08-29T04:51:02.789Z,20.33
2022-08-29T04:53:31.526Z,21.11
2022-08-29T04:56:07.177Z,20.86
2022-08-29T04:58:40.931Z,20.78
2022-08-29T05:01:23.023Z,21.11
2022-08-29T05:03:54.449Z,21.10
2022-08-29T05:06:25.263Z,20.88
2022-08-29T05:08:59.170Z,21.17
2022-08-29T05:11:32.196Z,21.03
2022-08-29T05:14:02.798Z,20.74
2022-08-29T05:16:35.137Z,20.68
2022-08-29T05:19:08.366Z,20.61
2022-08-29T05:21:40.939Z,20.77
2022-08-29T05:24:12.707Z,20.81
2022-08-29T05:26:45.676Z,21.02
2022-08-29T05:29:15.677Z,21.00
2022-08-29T05:31:45.590Z,21.87
2022-08-29T05:34:32.562Z,21.64
2022-08-29T05:37:10.448Z,21.72
2022-08-29T05:39:40.719Z,21.65
2022-08-29T05:42:12.254Z,21.77
2022-08-29T05:44:41.675Z,22.14
2022-08-29T05:47:14.447Z,22.70
2022-08-29T05:49:46.117Z,23.15
2022-08-29T05:52:19.656Z,22.76
2022-08-29T05:54:49.099Z,22.66
2022-08-29T05:57:22.615Z,22.50
2022-08-29T05:59:54.034Z,22.73
2022-08-29T06:02:24.530Z,22.92
2022-08-29T06:04:53.715Z,22.96
2022-08-29T06:07:22.238Z,23.04
2022-08-29T06:09:54.661Z,24.11
2022-08-29T06:12:29.046Z,26.01
2022-08-29T06:14:58.371Z,27.07
2022-08-29T06:17:28.145Z,27.97
2022-08-29T06:19:56.761Z,26.81
2022-08-29T06:22:25.300Z,25.41
2022-08-29T06:24:57.735Z,27.23
2022-08-29T06:27:29.093Z,27.12
2022-08-29T06:30:01.654Z,28.97
2022-08-29T06:32:30.497Z,28.51
2022-08-29T06:34:59.134Z,27.11
2022-08-29T06:37:27.727Z,26.71
2022-08-29T06:39:56.401Z,26.40
2022-08-29T06:42:25.662Z,26.73
2022-08-29T06:44:57.977Z,26.44
2022-08-29T06:47:26.698Z,29.24
2022-08-29T06:49:55.379Z,34.07
2022-08-29T06:52:23.925Z,34.47
2022-08-29T06:54:53.148Z,35.00
2022-08-29T06:57:22.069Z,35.67
2022-08-29T06:59:50.691Z,32.56
2022-08-29T07:02:19.241Z,28.23
2022-08-29T07:04:47.805Z,26.09
2022-08-29T07:07:16.463Z,25.99
2022-08-29T07:09:44.899Z,25.95
2022-08-29T07:12:13.334Z,26.28
2022-08-29T07:14:41.935Z,26.42
2022-08-29T07:17:10.893Z,26.32
2022-08-29T07:19:48.477Z,26.55
2022-08-29T07:22:17.322Z,30.18
2022-08-29T07:24:45.902Z,34.88
2022-08-29T07:27:15.675Z,35.68
2022-08-29T07:29:47.660Z,34.05
2022-08-29T07:32:21.710Z,29.39
2022-08-29T07:34:56.084Z,27.18
2022-08-29T07:37:25.137Z,27.59
2022-08-29T07:39:53.901Z,27.75
2022-08-29T07:42:22.514Z,27.91
2022-08-29T07:44:50.964Z,28.03
2022-08-29T07:47:19.523Z,27.90
2022-08-29T07:49:50.946Z,27.83
2022-08-29T07:52:20.271Z,27.49
2022-08-29T07:54:49.681Z,27.67
2022-08-29T07:57:19.349Z,26.76
2022-08-29T07:59:48.257Z,26.16
2022-08-29T08:02:16.937Z,26.73
2022-08-29T08:04:46.128Z,27.69
2022-08-29T08:07:15.177Z,27.90
2022-08-29T08:09:45.014Z,28.08
2022-08-29T08:12:13.467Z,28.56
2022-08-29T08:14:42.093Z,28.18
2022-08-29T08:17:11.655Z,28.85
2022-08-29T08:19:40.249Z,28.47
2022-08-29T08:22:10.123Z,28.67
2022-08-29T08:24:38.649Z,28.66
2022-08-29T08:27:07.321Z,28.80
2022-08-29T08:29:36.882Z,28.58
2022-08-29T08:32:05.371Z,28.99
2022-08-29T08:34:35.745Z,28.27
2022-08-29T08:37:09.303Z,28.21
2022-08-29T08:39:38.961Z,28.87
2022-08-29T08:42:43.473Z,28.82
2022-08-29T08:45:33.526Z,29.23
2022-08-29T08:48:22.356Z,28.92
2022-08-29T08:51:00.412Z,29.51
2022-08-29T08:53:50.637Z,28.64
2022-08-29T08:56:52.381Z,29.43
2022-08-29T08:59:45.454Z,29.57
2022-08-29T09:03:09.447Z,29.56
2022-08-29T09:06:12.585Z,29.42
2022-08-29T09:09:14.382Z,29.61
2022-08-29T09:12:16.531Z,29.11
2022-08-29T09:15:02.742Z,29.19
2022-08-29T09:18:23.859Z,29.37
2022-08-29T09:20:54.305Z,29.35
2022-08-29T09:23:45.550Z,29.03
2022-08-29T09:26:19.279Z,28.91
2022-08-29T09:28:48.864Z,28.78
2022-08-29T09:31:33.444Z,28.76
2022-08-29T09:34:11.930Z,29.16
2022-08-29T09:36:47.426Z,28.91
2022-08-29T09:39:33.799Z,28.96
2022-08-29T09:42:23.127Z,29.62
2022-08-29T09:45:08.820Z,29.57
2022-08-29T09:47:37.420Z,28.71
2022-08-29T09:50:22.300Z,28.58
2022-08-29T09:53:01.062Z,29.52
2022-08-29T09:55:45.452Z,28.82
2022-08-29T09:58:16.694Z,28.63
2022-08-29T10:01:04.902Z,28.99
2022-08-29T10:03:42.724Z,30.20
2022-08-29T10:06:23.117Z,30.08
2022-08-29T10:09:01.679Z,29.46
2022-08-29T10:12:04.276Z,29.05
2022-08-29T10:15:03.357Z,28.50
2022-08-29T10:18:07.974Z,29.25
2022-08-29T10:21:07.453Z,28.55
2022-08-29T10:24:38.699Z,28.41
2022-08-29T10:27:37.802Z,28.79
2022-08-29T10:30:20.962Z,28.35
2022-08-29T10:33:20.154Z,28.44
2022-08-29T10:36:34.913Z,29.11
2022-08-29T10:39:06.056Z,29.89
2022-08-29T10:42:19.462Z,29.15
2022-08-29T10:45:06.036Z,28.83
2022-08-29T10:48:22.058Z,29.25
2022-08-29T10:51:24.328Z,30.12
2022-08-29T10:54:05.557Z,30.86
2022-08-29T10:56:45.335Z,30.84
2022-08-29T11:00:16.689Z,30.52
2022-08-29T11:03:09.235Z,30.63
2022-08-29T11:05:49.795Z,31.33
2022-08-29T11:08:34.633Z,32.13
2022-08-29T11:11:03.441Z,31.93
2022-08-29T11:14:07.408Z,30.07
2022-08-29T11:16:55.616Z,29.96
2022-08-29T11:20:03.091Z,29.25
2022-08-29T11:23:04.643Z,29.30
2022-08-29T11:25:41.981Z,30.14
2022-08-29T11:29:10.301Z,29.12
2022-08-29T11:32:02.352Z,28.77
2022-08-29T11:35:01.175Z,28.62
2022-08-29T11:37:38.329Z,29.29
2022-08-29T11:43:44.091Z,29.03
2022-08-29T11:46:18.133Z,28.80
2022-08-29T11:48:56.819Z,28.65
2022-08-29T11:51:36.159Z,28.53
2022-08-29T11:54:43.006Z,28.47
2022-08-29T11:57:11.309Z,28.86
2022-08-29T11:59:48.970Z,29.56
2022-08-29T12:02:32.426Z,29.75
2022-08-29T12:05:30.033Z,29.07
2022-08-29T12:08:26.371Z,29.10
2022-08-29T12:10:56.775Z,29.06
2022-08-29T12:14:01.408Z,29.04
2022-08-29T12:16:53.429Z,29.18
2022-08-29T12:19:52.050Z,29.78
2022-08-29T12:23:08.429Z,29.92
2022-08-29T12:29:02.700Z,29.74
2022-08-29T12:32:29.788Z,29.33
2022-08-29T12:35:54.524Z,29.18
2022-08-29T12:38:50.070Z,29.11
2022-08-29T12:41:46.832Z,28.80
2022-08-29T12:44:22.765Z,29.64
2022-08-29T12:47:12.688Z,30.46
2022-08-29T12:49:55.987Z,30.39
2022-08-29T12:52:30.822Z,30.59
2022-08-29T12:55:28.971Z,30.84
2022-08-29T12:57:58.498Z,30.32
2022-08-29T13:00:33.469Z,30.60
2022-08-29T13:03:20.705Z,31.02
2022-08-29T13:05:49.604Z,30.47
2022-08-29T13:08:33.447Z,30.90
2022-08-29T13:11:12.812Z,30.86
2022-08-29T13:13:41.441Z,30.17
2022-08-29T13:16:29.127Z,29.90
2022-08-29T13:19:11.033Z,29.44
2022-08-29T13:21:40.318Z,29.16
2022-08-29T13:24:19.616Z,29.28
2022-08-29T13:27:05.511Z,29.08
2022-08-29T13:29:37.515Z,29.40
2022-08-29T13:32:27.000Z,29.83
2022-08-29T13:35:15.583Z,29.84
2022-08-29T13:37:59.929Z,30.11
2022-08-29T13:40:42.865Z,30.12
2022-08-29T13:43:43.399Z,30.49
2022-08-29T13:46:21.583Z,30.66
2022-08-29T13:49:03.811Z,30.46
2022-08-29T13:51:32.340Z,30.53
2022-08-29T13:54:00.872Z,30.88
2022-08-29T13:56:33.753Z,30.68
2022-08-29T13:59:04.152Z,30.89
2022-08-29T14:02:08.532Z,31.07
2022-08-29T14:04:37.631Z,30.92
2022-08-29T14:07:07.924Z,30.63
2022-08-29T14:09:42.755Z,30.72
2022-08-29T14:12:12.803Z,30.81
2022-08-29T14:14:43.547Z,30.34
2022-08-29T14:17:18.222Z,30.03
2022-08-29T14:19:48.243Z,30.55
2022-08-29T14:22:17.125Z,30.26
2022-08-29T14:24:51.976Z,30.17
2022-08-29T14:27:22.231Z,30.05
2022-08-29T14:29:51.562Z,30.62
2022-08-29T14:32:20.061Z,30.03
2022-08-29T14:34:51.088Z,29.26
2022-08-29T14:37:21.215Z,29.29
2022-08-29T14:39:51.013Z,29.41
2022-08-29T14:42:19.985Z,29.50
2022-08-29T14:44:48.521Z,29.15
2022-08-29T14:47:17.006Z,28.89
2022-08-29T14:49:45.605Z,28.94
2022-08-29T14:52:15.249Z,28.77
2022-08-29T14:54:44.763Z,28.85
2022-08-29T14:57:13.554Z,28.42
2022-08-29T14:59:42.398Z,28.34
2022-08-29T15:02:11.141Z,28.49
2022-08-29T15:04:40.213Z,28.53
2022-08-29T15:07:13.567Z,28.60
2022-08-29T15:09:44.114Z,28.51
2022-08-29T15:12:17.015Z,28.65
2022-08-29T15:14:47.029Z,28.57
2022-08-29T15:17:15.648Z,28.56
2022-08-29T15:20:31.648Z,28.58
2022-08-29T15:22:33.768Z,28.59
2022-08-29T15:25:03.598Z,28.42
2022-08-29T15:27:32.427Z,28.41
2022-08-29T15:30:00.931Z,28.38
2022-08-29T15:32:29.438Z,28.18
2022-08-29T15:34:58.187Z,27.89
2022-08-29T15:37:27.071Z,27.03
2022-08-29T15:39:55.629Z,26.58
2022-08-29T15:42:29.650Z,26.25
2022-08-29T15:45:07.691Z,25.97
2022-08-29T15:47:37.424Z,25.85
2022-08-29T15:50:08.057Z,25.93
2022-08-29T15:52:37.745Z,25.84
2022-08-29T15:55:08.141Z,25.60
2022-08-29T15:57:51.189Z,25.16
2022-08-29T16:00:30.705Z,25.35
2022-08-29T16:03:03.047Z,25.50
2022-08-29T16:05:33.810Z,25.38
2022-08-29T16:08:03.259Z,25.47
2022-08-29T16:10:33.635Z,25.66
2022-08-29T16:13:02.956Z,25.72
2022-08-29T16:15:33.562Z,25.61
2022-08-29T16:18:04.257Z,25.49
2022-08-29T16:20:33.345Z,25.41
2022-08-29T16:23:03.094Z,25.32
2022-08-29T16:25:33.768Z,25.37
2022-08-29T16:28:03.488Z,25.35
2022-08-29T16:30:35.121Z,25.61
2022-08-29T16:33:10.597Z,25.53
2022-08-29T16:35:39.201Z,25.26
2022-08-29T16:38:07.931Z,25.36
2022-08-29T16:40:36.953Z,25.07
2022-08-29T16:43:06.423Z,25.34
2022-08-29T16:45:35.621Z,25.00
2022-08-29T16:48:15.463Z,25.22
2022-08-29T16:50:47.280Z,25.17
2022-08-29T16:53:16.101Z,25.35
2022-08-29T16:55:44.789Z,25.25
2022-08-29T16:58:31.894Z,25.50
2022-08-29T17:01:01.075Z,25.38
2022-08-29T17:03:29.687Z,25.44
2022-08-29T17:05:58.224Z,25.35
2022-08-29T17:08:27.005Z,25.12
2022-08-29T17:10:56.728Z,25.14
2022-08-29T17:13:25.566Z,25.15
2022-08-29T17:15:54.619Z,25.23
2022-08-29T17:18:23.304Z,25.05
2022-08-29T17:20:54.200Z,25.09
2022-08-29T17:23:23.081Z,24.91
2022-08-29T17:25:51.666Z,25.01
2022-08-29T17:28:20.323Z,24.87
2022-08-29T17:30:49.715Z,24.78
2022-08-29T17:33:19.773Z,24.71
2022-08-29T17:35:49.231Z,24.62
2022-08-29T17:38:18.628Z,24.44
2022-08-29T17:40:48.045Z,24.37
2022-08-29T17:43:18.887Z,24.29
2022-08-29T17:45:48.336Z,24.25
2022-08-29T17:48:17.499Z,24.17
2022-08-29T17:50:49.375Z,24.13
2022-08-29T17:53:21.278Z,24.01
2022-08-29T17:55:51.243Z,24.02
2022-08-29T17:58:24.615Z,23.98
2022-08-29T18:00:54.778Z,23.99
2022-08-29T18:03:25.042Z,23.91
2022-08-29T18:05:53.633Z,23.91
2022-08-29T18:08:22.344Z,24.01
2022-08-29T18:10:51.834Z,23.84
2022-08-29T18:13:21.902Z,23.67
2022-08-29T18:15:52.783Z,23.67
2022-08-29T18:18:21.967Z,23.81
2022-08-29T18:20:51.021Z,23.72
2022-08-29T18:23:20.198Z,23.72
2022-08-29T18:25:48.959Z,23.65
2022-08-29T18:28:17.827Z,23.66
2022-08-29T18:30:46.800Z,23.67
2022-08-29T18:33:16.617Z,23.74
2022-08-29T18:35:45.492Z,23.66
2022-08-29T18:38:15.357Z,23.38
2022-08-29T18:40:44.858Z,23.42
2022-08-29T18:43:15.243Z,23.26
2022-08-29T18:45:43.902Z,23.27
2022-08-29T18:48:12.587Z,22.88
2022-08-29T18:50:41.265Z,22.83
2022-08-29T18:53:16.341Z,22.52
2022-08-29T18:55:51.231Z,22.80
2022-08-29T18:58:26.903Z,22.73
2022-08-29T19:00:59.336Z,22.44
2022-08-29T19:03:27.913Z,22.34
2022-08-29T19:05:56.508Z,22.39
2022-08-29T19:08:25.337Z,22.62
2022-08-29T19:10:55.727Z,22.62
2022-08-29T19:13:25.362Z,22.41
2022-08-29T19:15:58.771Z,22.51
2022-08-29T19:18:28.059Z,22.43
2022-08-29T19:21:02.565Z,22.54
2022-08-29T19:23:39.200Z,22.48
2022-08-29T19:26:20.580Z,22.19
2022-08-29T19:28:49.127Z,21.98
2022-08-29T19:31:18.453Z,22.17
2022-08-29T19:33:48.234Z,22.19
2022-08-29T19:36:17.751Z,22.15
2022-08-29T19:38:47.371Z,22.41
2022-08-29T19:41:16.519Z,22.12
2022-08-29T19:43:45.881Z,22.31
2022-08-29T19:46:20.865Z,22.34
2022-08-29T19:48:52.463Z,22.39
2022-08-29T19:51:25.461Z,22.36
2022-08-29T19:53:59.269Z,22.25
2022-08-29T19:56:29.286Z,22.05
2022-08-29T19:58:57.990Z,21.88
2022-08-29T20:01:27.391Z,21.64
2022-08-29T20:03:56.363Z,21.69
2022-08-29T20:06:25.107Z,21.78
2022-08-29T20:08:53.828Z,21.85
2022-08-29T20:11:27.006Z,21.95
2022-08-29T20:14:00.731Z,21.93
2022-08-29T20:16:35.941Z,22.09
2022-08-29T20:19:05.620Z,21.96
2022-08-29T20:21:36.014Z,21.94
2022-08-29T20:24:06.121Z,22.10
2022-08-29T20:26:37.481Z,22.05
2022-08-29T20:29:11.360Z,22.10
2022-08-29T20:31:40.826Z,21.95
2022-08-29T20:34:10.496Z,21.76
2022-08-29T20:36:58.154Z,21.87
2022-08-29T20:39:27.143Z,21.74
2022-08-29T20:41:59.676Z,21.72
2022-08-29T20:44:34.050Z,21.70
2022-08-29T20:47:03.071Z,21.40
2022-08-29T20:49:32.241Z,21.30
2022-08-29T20:52:02.132Z,21.51
2022-08-29T20:54:31.774Z,21.41
2022-08-29T20:57:00.464Z,21.16
2022-08-29T20:59:32.663Z,21.28
2022-08-29T21:02:05.047Z,21.25
2022-08-29T21:04:52.709Z,21.18
2022-08-29T21:07:22.200Z,21.10
2022-08-29T21:09:52.054Z,21.09
2022-08-29T21:12:22.425Z,21.34
2022-08-29T21:14:56.170Z,21.38
2022-08-29T21:17:24.792Z,21.33
2022-08-29T21:19:53.279Z,21.33
2022-08-29T21:22:24.956Z,21.29
2022-08-29T21:24:56.109Z,21.05
2022-08-29T21:27:24.773Z,21.26
2022-08-29T21:29:56.807Z,21.07
2022-08-29T21:32:25.415Z,21.25
2022-08-29T21:34:53.949Z,21.08
2022-08-29T21:37:22.896Z,21.31
2022-08-29T21:39:51.402Z,21.13
2022-08-29T21:42:19.931Z,21.20
2022-08-29T21:44:48.596Z,21.02
2022-08-29T21:47:17.998Z,21.26
2022-08-29T21:49:48.606Z,21.13
2022-08-29T21:52:17.743Z,20.90
2022-08-29T21:54:46.657Z,21.03
2022-08-29T21:57:19.072Z,20.82
2022-08-29T21:59:48.803Z,20.96
2022-08-29T22:02:17.693Z,20.82
2022-08-29T22:04:46.493Z,20.64
2022-08-29T22:07:16.226Z,20.54
2022-08-29T22:09:45.292Z,20.53
2022-08-29T22:12:13.840Z,20.61
2022-08-29T22:15:00.795Z,20.45
2022-08-29T22:17:29.225Z,20.66
2022-08-29T22:19:57.910Z,20.87
2022-08-29T22:22:26.423Z,20.57
2022-08-29T22:24:55.014Z,20.44
2022-08-29T22:27:23.541Z,20.28
2022-08-29T22:29:52.163Z,20.27
2022-08-29T22:32:20.771Z,20.17
2022-08-29T22:34:49.406Z,20.23
2022-08-29T22:37:18.490Z,19.97
2022-08-29T22:39:47.152Z,20.19
2022-08-29T22:42:15.657Z,20.35
2022-08-29T22:45:03.389Z,20.36
2022-08-29T22:47:32.897Z,20.24
2022-08-29T22:50:02.644Z,20.19
2022-08-29T22:52:32.263Z,20.27
2022-08-29T22:55:01.158Z,20.17
2022-08-29T22:57:29.759Z,20.32
2022-08-29T22:59:58.461Z,20.45
2022-08-29T23:02:27.538Z,20.42
2022-08-29T23:04:56.245Z,20.43
2022-08-29T23:07:25.340Z,20.20
2022-08-29T23:09:56.029Z,20.19
2022-08-29T23:12:24.747Z,19.91
2022-08-29T23:14:53.577Z,19.85
2022-08-29T23:17:22.272Z,19.79
2022-08-29T23:19:51.680Z,19.70
2022-08-29T23:22:20.294Z,19.73
2022-08-29T23:24:53.951Z,19.68
2022-08-29T23:27:31.309Z,19.70
2022-08-29T23:30:02.355Z,19.58
2022-08-29T23:32:31.022Z,19.72
2022-08-29T23:35:00.054Z,19.67
2022-08-29T23:37:28.767Z,19.68
2022-08-29T23:39:57.619Z,19.65
2022-08-29T23:42:26.605Z,19.63
2022-08-29T23:44:55.276Z,19.58
2022-08-29T23:47:23.894Z,19.68
2022-08-29T23:49:53.283Z,19.63
2022-08-29T23:52:21.963Z,19.80
2022-08-29T23:54:50.685Z,19.79
2022-08-29T23:57:20.105Z,19.65
